Kopperl, Texas
Current Conditions -  °F | °C
As of 6:35 AM on Monday 24 Nov 2014 (Local Time) from KCPT Reporting Station
Clear Clear  
Wind Chill: 37°   Ceiling: Unl
Heat Index: 43°   Visibility: 10mi
Dew Point: 36°   Wind: 9mph
Humidity: 76%   Direction: 310°NW
Pressure: 29.98"   Gusts: 15mph
Location:  32.07°N, 97.5°W
Report Text: KCPT 241235Z AUTO 31008G13KT 10SM CLR 06/02 A2998 RMK AO2
Loading
Personal Weather Stations






























Interactive Weather Map New forecast layout! Learn more

10-Day Weather Forecast

Advertisements
Track Severe Weather on mobile